Time;durP1;ratioP1;P1;durP2;ratioP2;P2;SDS_P1;SDS_P2;PMS_P1;PMS_P2;Temp;Humidity;BMP_temperature;BMP_pressure;BME280_temperature;BME280_humidity;BME280_pressure;Samples;Min_cycle;Max_cycle;Signal;HPM_P1;HPM_P2
2022/10/12 00:00:14;;;;;;;6.40;1.60;;;19.10;99.90;;;;;;5093231;28;20229;-72
2022/10/12 00:02:42;;;;;;;5.20;1.73;;;18.80;99.90;;;;;;5092379;28;20663;-72
2022/10/12 00:05:11;;;;;;;7.60;2.00;;;19.10;99.90;;;;;;5093175;28;20174;-72
2022/10/12 00:07:39;;;;;;;4.80;2.00;;;19.30;99.90;;;;;;5093854;28;20181;-73
2022/10/12 00:10:07;;;;;;;4.43;1.57;;;19.40;99.90;;;;;;5083629;28;20861;-73
2022/10/12 00:12:35;;;;;;;1.43;1.13;;;19.50;99.90;;;;;;5082174;28;20185;-72
2022/10/12 00:15:03;;;;;;;4.17;1.53;;;20.10;99.90;;;;;;5089417;28;20207;-69
2022/10/12 00:17:30;;;;;;;4.37;1.70;;;20.30;99.90;;;;;;5093162;28;20263;-69
2022/10/12 00:19:58;;;;;;;8.00;1.70;;;20.60;99.90;;;;;;5092626;28;20248;-67
2022/10/12 00:22:26;;;;;;;2.73;1.20;;;21.40;99.90;;;;;;5093254;28;20167;-68
2022/10/12 00:24:54;;;;;;;6.53;1.57;;;22.50;99.90;;;;;;5093015;28;20210;-69
2022/10/12 00:27:21;;;;;;;4.13;1.27;;;23.40;99.90;;;;;;5087479;28;20182;-68
2022/10/12 00:29:49;;;;;;;3.63;0.97;;;23.60;99.90;;;;;;5081297;28;20300;-68
2022/10/12 00:32:17;;;;;;;2.73;1.00;;;23.50;99.90;;;;;;5075299;28;20191;-69
2022/10/12 00:34:45;;;;;;;1.93;1.20;;;23.10;99.90;;;;;;5077303;28;20180;-69
2022/10/12 00:37:13;;;;;;;3.80;1.00;;;23.10;99.90;;;;;;5073822;28;20219;-69
2022/10/12 00:39:41;;;;;;;4.13;1.40;;;22.40;99.90;;;;;;5085312;28;20272;-70
2022/10/12 00:42:12;;;;;;;1.67;0.70;;;21.70;99.90;;;;;;5091425;28;20173;-69
2022/10/12 00:44:45;;;;;;;3.87;1.00;;;21.20;99.90;;;;;;5091137;28;20207;-69
2022/10/12 00:47:25;;;;;;;3.13;1.00;;;21.10;99.90;;;;;;5091490;28;20196;-68
2022/10/12 00:50:11;;;;;;;2.67;0.90;;;21.20;99.90;;;;;;5091282;28;20256;-68
2022/10/12 00:53:02;;;;;;;3.33;1.10;;;21.50;99.90;;;;;;5091344;28;20180;-68
2022/10/12 00:55:35;;;;;;;2.30;0.97;;;22.00;99.90;;;;;;5091367;28;20532;-68
2022/10/12 00:58:05;;;;;;;3.30;0.90;;;22.00;99.90;;;;;;5070927;28;20194;-70
2022/10/12 01:00:34;;;;;;;3.03;1.00;;;22.00;99.90;;;;;;5083462;28;20232;-71
2022/10/12 01:03:02;;;;;;;2.77;0.83;;;22.30;99.90;;;;;;5091314;28;20175;-69
2022/10/12 01:05:30;;;;;;;3.83;0.93;;;22.50;99.90;;;;;;5090694;28;20189;-71
2022/10/12 01:07:59;;;;;;;5.60;1.13;;;22.60;99.90;;;;;;5091238;28;20671;-73
2022/10/12 01:10:27;;;;;;;3.43;1.03;;;22.30;99.90;;;;;;5093901;28;20212;-69
2022/10/12 01:12:55;;;;;;;3.77;0.97;;;22.30;99.90;;;;;;5094663;28;20585;-70
2022/10/12 01:15:26;;;;;;;3.13;0.90;;;22.00;99.90;;;;;;5094744;28;20269;-70
2022/10/12 01:18:12;;;;;;;2.13;0.80;;;21.50;99.90;;;;;;5094843;28;20175;-68
2022/10/12 01:20:49;;;;;;;18.57;1.83;;;21.20;99.90;;;;;;5094398;28;20179;-71
2022/10/12 01:23:35;;;;;;;4.00;0.93;;;21.00;99.90;;;;;;5094545;28;20174;-73
2022/10/12 01:26:41;;;;;;;10.50;2.97;;;20.90;99.90;;;;;;5094661;28;20186;-72
2022/10/12 01:29:34;;;;;;;0.93;0.70;;;20.90;99.90;;;;;;5079724;28;20215;-70
2022/10/12 01:32:02;;;;;;;1.43;1.03;;;20.90;99.90;;;;;;5094510;28;20179;-72
2022/10/12 01:34:40;;;;;;;2.53;0.90;;;21.10;99.90;;;;;;5073868;28;20234;-74
2022/10/12 01:37:29;;;;;;;4.17;1.03;;;21.20;99.90;;;;;;5088280;28;20273;-71
2022/10/12 01:40:00;;;;;;;6.13;1.83;;;21.30;99.90;;;;;;5094289;28;20180;-73
2022/10/12 01:42:31;;;;;;;11.63;1.90;;;21.30;99.90;;;;;;5094040;28;20180;-71
2022/10/12 01:45:09;;;;;;;7.10;1.70;;;21.30;99.90;;;;;;5094399;28;20184;-70
2022/10/12 01:47:38;;;;;;;6.13;1.30;;;21.20;99.90;;;;;;5093904;28;20179;-72
2022/10/12 01:50:11;;;;;;;3.87;1.43;;;21.10;99.90;;;;;;5098488;28;20206;-72
2022/10/12 01:52:48;;;;;;;4.53;1.30;;;21.00;99.90;;;;;;5081976;28;20641;-70
2022/10/12 01:55:27;;;;;;;3.43;1.67;;;20.80;99.90;;;;;;5096001;28;20542;-70
2022/10/12 01:58:10;;;;;;;6.07;1.70;;;20.40;99.90;;;;;;5094227;28;20322;-69
2022/10/12 02:00:56;;;;;;;5.03;1.50;;;20.30;99.90;;;;;;5093738;28;20752;-69
2022/10/12 02:03:55;;;;;;;5.83;1.87;;;20.20;99.90;;;;;;5074495;28;20212;-70
2022/10/12 02:06:32;;;;;;;6.07;1.60;;;20.10;99.90;;;;;;5073576;28;20182;-69
2022/10/12 02:09:25;;;;;;;7.50;1.90;;;20.10;99.90;;;;;;5087440;28;20215;-69
2022/10/12 02:11:56;;;;;;;5.40;1.53;;;20.00;99.90;;;;;;5089335;28;20183;-69
2022/10/12 02:14:51;;;;;;;3.90;1.27;;;19.80;99.90;;;;;;5093798;28;20168;-70
2022/10/12 02:17:22;;;;;;;8.00;1.43;;;19.90;99.90;;;;;;5072675;28;20281;-71
2022/10/12 02:20:01;;;;;;;4.90;1.40;;;19.80;99.90;;;;;;5093551;28;20172;-70
2022/10/12 02:22:34;;;;;;;3.83;1.10;;;19.60;99.90;;;;;;5089713;28;20177;-70
2022/10/12 02:25:10;;;;;;;5.20;1.57;;;19.60;99.90;;;;;;5086752;28;20564;-70
2022/10/12 02:27:41;;;;;;;7.63;1.83;;;19.50;99.90;;;;;;5073020;28;20189;-70
2022/10/12 02:30:10;;;;;;;1.97;1.20;;;19.50;99.90;;;;;;5073233;28;20215;-69
2022/10/12 02:32:40;;;;;;;6.53;1.00;;;19.70;99.90;;;;;;5085546;28;20183;-71
2022/10/12 02:35:27;;;;;;;4.73;0.97;;;19.80;99.90;;;;;;5093314;28;20180;-69
2022/10/12 02:38:01;;;;;;;3.93;1.13;;;20.00;99.90;;;;;;5093187;28;20261;-71
2022/10/12 02:41:04;;;;;;;3.17;1.00;;;20.10;99.90;;;;;;5096043;28;20176;-69
2022/10/12 02:43:40;;;;;;;2.70;1.00;;;20.20;99.90;;;;;;5071577;28;20229;-71
2022/10/12 02:46:09;;;;;;;2.90;1.10;;;20.20;99.90;;;;;;5095091;28;20172;-71
2022/10/12 02:48:40;;;;;;;6.50;1.20;;;20.30;99.90;;;;;;5074831;28;20238;-71
2022/10/12 02:51:10;;;;;;;2.07;0.97;;;20.40;99.90;;;;;;5096544;28;20656;-72
2022/10/12 02:53:38;;;;;;;4.37;0.90;;;20.50;99.90;;;;;;5094505;28;20185;-72
2022/10/12 02:56:12;;;;;;;2.57;0.97;;;20.80;99.90;;;;;;5094154;28;20652;-70
2022/10/12 02:58:46;;;;;;;4.20;0.90;;;21.10;99.90;;;;;;5092907;28;20183;-70
2022/10/12 03:01:18;;;;;;;3.37;1.13;;;21.40;99.90;;;;;;5082378;28;20193;-71
2022/10/12 03:03:46;;;;;;;2.30;1.00;;;22.00;99.90;;;;;;5092037;28;20183;-71
2022/10/12 03:06:13;;;;;;;3.70;0.80;;;22.30;99.90;;;;;;5092690;28;20170;-70
2022/10/12 03:08:41;;;;;;;4.10;1.33;;;22.00;99.90;;;;;;5090905;28;20179;-69
2022/10/12 03:11:11;;;;;;;4.43;1.23;;;22.40;99.90;;;;;;5092477;28;20179;-70
2022/10/12 03:13:38;;;;;;;4.97;1.53;;;22.80;99.90;;;;;;5073161;28;20229;-70
2022/10/12 03:16:08;;;;;;;1.47;1.00;;;23.40;99.90;;;;;;5072238;28;20187;-70
2022/10/12 03:18:37;;;;;;;3.43;1.13;;;23.50;99.90;;;;;;5073105;28;20633;-71
2022/10/12 03:21:04;;;;;;;3.03;1.10;;;23.30;99.90;;;;;;5092203;28;20180;-69
2022/10/12 03:23:32;;;;;;;4.60;1.10;;;23.10;99.90;;;;;;5072651;28;20266;-71
2022/10/12 03:25:59;;;;;;;3.30;1.10;;;22.60;99.90;;;;;;5054077;28;20592;-71
2022/10/12 03:28:27;;;;;;;4.27;1.27;;;22.50;99.90;;;;;;5083627;28;20193;-71
2022/10/12 03:30:55;;;;;;;3.70;0.90;;;22.40;99.90;;;;;;5092162;28;20569;-72
2022/10/12 03:33:22;;;;;;;3.30;0.90;;;22.40;99.90;;;;;;5089370;28;20212;-70
2022/10/12 03:35:50;;;;;;;5.17;0.97;;;22.20;99.90;;;;;;5091884;28;20236;-70
2022/10/12 03:38:18;;;;;;;5.83;1.27;;;21.80;99.90;;;;;;5092030;28;20166;-71
2022/10/12 03:40:46;;;;;;;3.37;0.90;;;21.70;99.90;;;;;;5092014;28;20213;-70
2022/10/12 03:43:14;;;;;;;2.47;0.90;;;21.60;99.90;;;;;;5086192;28;20189;-69
2022/10/12 03:45:41;;;;;;;3.10;1.33;;;21.50;99.90;;;;;;5076651;28;20549;-70
2022/10/12 03:48:09;;;;;;;6.67;1.40;;;21.60;99.90;;;;;;5091338;28;20195;-70
2022/10/12 03:50:37;;;;;;;5.63;1.00;;;21.60;99.90;;;;;;5090176;28;20217;-70
2022/10/12 03:53:05;;;;;;;4.73;1.60;;;21.40;99.90;;;;;;5089640;28;20187;-68
2022/10/12 03:55:33;;;;;;;3.63;1.17;;;21.20;99.90;;;;;;5089795;28;20177;-70
2022/10/12 03:58:01;;;;;;;7.70;1.87;;;20.90;99.90;;;;;;5082196;28;20699;-71
2022/10/12 04:00:29;;;;;;;3.33;1.10;;;20.80;99.90;;;;;;5053727;28;20325;-68
2022/10/12 04:02:56;;;;;;;4.47;1.20;;;20.70;99.90;;;;;;5054660;28;20247;-69
2022/10/12 04:05:24;;;;;;;5.40;1.13;;;20.50;99.90;;;;;;5087569;28;20274;-69
2022/10/12 04:07:51;;;;;;;4.00;1.10;;;20.50;99.90;;;;;;5090612;28;20189;-71
2022/10/12 04:10:19;;;;;;;4.47;1.20;;;20.60;99.90;;;;;;5080914;28;20215;-69
2022/10/12 04:12:46;;;;;;;10.40;1.30;;;20.60;99.90;;;;;;5083624;28;20686;-72
2022/10/12 04:15:16;;;;;;;3.37;1.20;;;20.70;99.90;;;;;;5092231;28;20652;-72
2022/10/12 04:17:44;;;;;;;8.53;1.27;;;20.80;99.90;;;;;;5091061;28;20175;-71
2022/10/12 04:20:12;;;;;;;5.97;1.10;;;20.80;99.90;;;;;;5092826;28;20181;-71
2022/10/12 04:22:40;;;;;;;2.90;1.03;;;20.70;99.90;;;;;;5093058;28;20183;-75
2022/10/12 04:25:09;;;;;;;3.50;0.93;;;20.70;99.90;;;;;;5093059;28;20183;-70
2022/10/12 04:27:36;;;;;;;6.43;0.90;;;20.70;99.90;;;;;;5092834;28;20724;-71
2022/10/12 04:30:04;;;;;;;7.10;1.23;;;20.50;99.90;;;;;;5093088;28;20607;-70
2022/10/12 04:32:32;;;;;;;2.33;0.80;;;20.60;99.90;;;;;;5093029;28;20595;-70
2022/10/12 04:34:59;;;;;;;6.63;1.30;;;20.60;99.90;;;;;;5092929;28;20175;-73
2022/10/12 04:37:27;;;;;;;4.23;1.40;;;20.60;99.90;;;;;;5093042;28;20577;-76
2022/10/12 04:39:55;;;;;;;3.20;1.07;;;20.70;99.90;;;;;;5092819;28;20182;-75
2022/10/12 04:42:22;;;;;;;7.77;1.23;;;20.70;99.90;;;;;;5093196;28;20205;-75
2022/10/12 04:44:50;;;;;;;5.70;1.10;;;20.70;99.90;;;;;;5095418;28;20257;-71
2022/10/12 04:47:17;;;;;;;7.17;1.40;;;20.80;99.90;;;;;;5096928;28;20678;-72
2022/10/12 04:49:44;;;;;;;4.27;1.30;;;20.90;99.90;;;;;;5096833;28;20218;-71
2022/10/12 04:52:12;;;;;;;4.70;1.23;;;20.90;99.90;;;;;;5096644;28;20171;-75
2022/10/12 04:54:39;;;;;;;5.43;1.30;;;20.90;99.90;;;;;;5096617;28;20190;-71
2022/10/12 04:57:07;;;;;;;3.50;1.47;;;20.70;99.90;;;;;;5096723;28;20180;-74
2022/10/12 04:59:34;;;;;;;4.43;1.50;;;20.60;99.90;;;;;;5096253;28;20643;-71
2022/10/12 05:02:01;;;;;;;5.17;1.70;;;20.50;99.90;;;;;;5096500;28;20216;-71
2022/10/12 05:04:29;;;;;;;12.83;2.80;;;20.50;99.90;;;;;;5096507;28;20198;-71
2022/10/12 05:06:57;;;;;;;5.30;1.53;;;20.60;99.90;;;;;;5079079;28;20198;-76
2022/10/12 05:09:24;;;;;;;4.33;1.40;;;20.60;99.90;;;;;;5078180;28;20211;-71
2022/10/12 05:11:52;;;;;;;7.13;1.40;;;20.60;99.90;;;;;;5096275;28;20657;-72
2022/10/12 05:14:19;;;;;;;5.33;1.70;;;20.80;99.90;;;;;;5096245;28;20738;-73
2022/10/12 05:16:46;;;;;;;5.03;1.30;;;20.80;99.90;;;;;;5096223;28;20174;-71
2022/10/12 05:19:14;;;;;;;1.93;0.90;;;20.80;99.90;;;;;;5077980;28;20176;-72
2022/10/12 05:21:41;;;;;;;3.00;1.00;;;20.70;99.90;;;;;;5077957;28;20179;-71
2022/10/12 05:24:10;;;;;;;2.10;1.00;;;20.60;99.90;;;;;;5096277;28;20191;-72
2022/10/12 05:26:37;;;;;;;3.23;1.10;;;20.60;99.90;;;;;;5096008;28;20180;-72
2022/10/12 05:29:05;;;;;;;2.50;0.97;;;20.60;99.90;;;;;;5095954;28;20218;-71
2022/10/12 05:31:32;;;;;;;5.17;1.30;;;20.40;99.90;;;;;;5096335;28;20179;-71
2022/10/12 05:33:59;;;;;;;4.40;1.00;;;20.40;99.90;;;;;;5095974;28;20168;-75
2022/10/12 05:36:27;;;;;;;7.53;1.50;;;20.40;99.90;;;;;;5077657;28;20236;-74
2022/10/12 05:38:54;;;;;;;1.93;1.20;;;20.40;99.90;;;;;;5095938;28;20175;-71
2022/10/12 05:41:22;;;;;;;5.90;1.87;;;20.40;99.90;;;;;;5095905;28;20174;-71
2022/10/12 05:43:49;;;;;;;4.30;1.30;;;20.50;99.90;;;;;;5095678;28;20174;-71
2022/10/12 05:46:16;;;;;;;3.70;1.60;;;20.60;99.90;;;;;;5095809;28;20586;-75
2022/10/12 05:48:44;;;;;;;3.90;1.30;;;20.70;99.90;;;;;;5095498;28;20180;-74
2022/10/12 05:51:11;;;;;;;5.73;1.50;;;20.70;99.90;;;;;;5094854;28;20275;-76
2022/10/12 05:53:38;;;;;;;5.33;1.50;;;20.60;99.90;;;;;;5095366;28;20167;-71
2022/10/12 05:56:06;;;;;;;9.13;1.53;;;20.40;99.90;;;;;;5095014;28;20173;-70
2022/10/12 05:58:34;;;;;;;3.10;1.10;;;20.40;99.90;;;;;;5095307;28;20207;-71
2022/10/12 06:01:12;;;;;;;6.20;1.40;;;20.40;99.90;;;;;;5095013;28;20227;-75
2022/10/12 06:03:40;;;;;;;6.60;1.20;;;20.40;99.90;;;;;;5095190;28;20190;-72
2022/10/12 06:06:08;;;;;;;2.77;1.10;;;20.40;99.90;;;;;;5095295;28;20513;-72
2022/10/12 06:08:36;;;;;;;5.23;1.60;;;20.30;99.90;;;;;;5095003;28;20273;-76
2022/10/12 06:11:03;;;;;;;8.23;1.27;;;20.20;99.90;;;;;;5095088;28;20220;-72
2022/10/12 06:13:31;;;;;;;5.57;1.30;;;20.10;99.90;;;;;;5094920;28;20176;-70
2022/10/12 06:15:58;;;;;;;4.40;1.53;;;19.90;99.90;;;;;;5095220;28;20197;-71
2022/10/12 06:18:25;;;;;;;6.43;1.30;;;19.90;99.90;;;;;;5095200;28;20180;-70
2022/10/12 06:20:54;;;;;;;4.90;1.70;;;19.90;99.90;;;;;;5076654;28;20660;-75
2022/10/12 06:23:22;;;;;;;3.30;1.20;;;19.80;99.90;;;;;;5094908;28;20252;-70
2022/10/12 06:25:50;;;;;;;5.70;1.00;;;19.70;99.90;;;;;;5094914;28;20518;-70
2022/10/12 06:28:19;;;;;;;4.57;0.97;;;19.70;99.90;;;;;;5094736;28;20194;-71
2022/10/12 06:30:53;;;;;;;4.37;1.30;;;19.80;99.90;;;;;;5095132;28;20648;-75
2022/10/12 06:33:21;;;;;;;4.40;1.00;;;19.70;99.90;;;;;;5094708;28;20182;-70
2022/10/12 06:35:48;;;;;;;5.60;1.13;;;19.70;99.90;;;;;;5094652;28;20284;-74
2022/10/12 06:38:16;;;;;;;6.03;1.03;;;19.60;99.90;;;;;;5094575;28;20171;-74
2022/10/12 06:40:43;;;;;;;4.43;1.00;;;19.50;99.90;;;;;;5094643;28;20312;-76
2022/10/12 06:43:11;;;;;;;4.57;1.30;;;19.40;99.90;;;;;;5094572;28;20175;-74
2022/10/12 06:45:39;;;;;;;8.00;1.30;;;19.40;99.90;;;;;;5094793;28;20219;-75
2022/10/12 06:48:07;;;;;;;4.03;1.00;;;19.40;99.90;;;;;;5076197;28;20563;-74
2022/10/12 06:50:35;;;;;;;3.63;1.30;;;19.40;99.90;;;;;;5094532;28;20207;-75
2022/10/12 06:53:03;;;;;;;7.53;1.10;;;19.30;99.90;;;;;;5094444;28;20167;-73
2022/10/12 06:55:30;;;;;;;4.20;1.00;;;19.30;99.90;;;;;;5094220;28;20538;-73
2022/10/12 06:57:58;;;;;;;6.13;1.00;;;19.20;99.90;;;;;;5094173;28;20210;-71
2022/10/12 07:00:25;;;;;;;9.90;1.90;;;19.20;99.90;;;;;;5093785;28;20292;-73
2022/10/12 07:02:53;;;;;;;5.37;1.10;;;19.20;99.90;;;;;;5094124;28;20168;-71
2022/10/12 07:05:20;;;;;;;8.50;1.50;;;19.10;99.90;;;;;;5094008;28;20187;-75
2022/10/12 07:07:48;;;;;;;8.83;1.37;;;19.10;99.90;;;;;;5093764;28;20185;-72
2022/10/12 07:10:15;;;;;;;8.53;1.60;;;19.00;99.90;;;;;;5093891;28;20317;-73
2022/10/12 07:12:42;;;;;;;7.07;1.10;;;18.90;99.90;;;;;;5094034;28;20640;-74
2022/10/12 07:15:10;;;;;;;4.50;0.93;;;18.80;99.90;;;;;;5093995;28;20179;-73
2022/10/12 07:17:38;;;;;;;4.10;0.90;;;18.80;99.90;;;;;;5093778;28;20527;-75
2022/10/12 07:20:06;;;;;;;5.47;0.87;;;18.70;99.90;;;;;;5093573;28;20179;-76
2022/10/12 07:22:34;;;;;;;4.07;0.97;;;18.70;99.90;;;;;;5093875;28;20175;-75
2022/10/12 07:25:01;;;;;;;6.83;1.10;;;18.70;99.90;;;;;;5094058;28;20190;-74
2022/10/12 07:27:28;;;;;;;8.30;0.97;;;18.60;99.90;;;;;;5094687;28;20167;-74
2022/10/12 07:29:56;;;;;;;3.70;1.03;;;18.60;99.90;;;;;;5093602;28;20218;-72
2022/10/12 07:32:23;;;;;;;5.07;0.80;;;18.60;99.90;;;;;;5093948;28;20534;-72
2022/10/12 07:34:51;;;;;;;2.60;0.90;;;18.60;99.90;;;;;;5075114;28;20187;-74
2022/10/12 07:37:18;;;;;;;4.90;0.93;;;18.50;99.90;;;;;;5093718;28;20182;-74
2022/10/12 07:39:46;;;;;;;5.67;1.20;;;18.50;99.90;;;;;;5093565;28;20175;-75
2022/10/12 07:42:13;;;;;;;4.10;0.80;;;18.50;99.90;;;;;;5093385;28;20606;-74
2022/10/12 07:44:41;;;;;;;3.00;0.90;;;18.40;99.90;;;;;;5093435;28;20175;-75
2022/10/12 07:47:08;;;;;;;2.43;0.83;;;18.40;99.90;;;;;;5093419;28;20179;-74
2022/10/12 07:49:35;;;;;;;5.53;1.03;;;18.30;99.90;;;;;;5093514;28;20242;-75
2022/10/12 07:52:03;;;;;;;4.57;1.00;;;18.30;99.90;;;;;;5093392;28;20186;-75
2022/10/12 07:54:31;;;;;;;4.57;1.20;;;18.30;99.90;;;;;;5093444;28;20179;-73
2022/10/12 07:56:59;;;;;;;2.30;0.97;;;18.30;99.90;;;;;;5093186;28;20178;-74
2022/10/12 07:59:26;;;;;;;9.37;1.20;;;18.30;99.90;;;;;;5092967;28;20254;-73
2022/10/12 08:01:54;;;;;;;3.83;1.17;;;18.30;99.90;;;;;;5093282;28;20199;-73
2022/10/12 08:04:21;;;;;;;7.63;1.20;;;18.20;99.90;;;;;;5093373;28;20179;-74
2022/10/12 08:06:48;;;;;;;6.80;1.10;;;18.20;99.90;;;;;;5093379;28;20175;-74
2022/10/12 08:09:16;;;;;;;5.87;1.00;;;18.10;99.90;;;;;;5093079;28;20203;-75
2022/10/12 08:11:43;;;;;;;5.43;1.07;;;18.10;99.90;;;;;;5093078;28;20232;-72
2022/10/12 08:14:16;;;;;;;4.50;1.57;;;18.00;99.90;;;;;;5093200;28;20641;-73
2022/10/12 08:16:44;;;;;;;5.50;0.90;;;18.00;99.90;;;;;;5093204;28;20220;-73
2022/10/12 08:19:14;;;;;;;8.00;1.23;;;18.00;99.90;;;;;;5096097;28;20521;-73
2022/10/12 08:21:41;;;;;;;6.63;1.30;;;18.00;99.90;;;;;;5097287;28;20186;-74
2022/10/12 08:24:10;;;;;;;5.80;1.20;;;18.00;99.90;;;;;;5078894;28;20175;-73
2022/10/12 08:26:38;;;;;;;5.73;1.40;;;17.90;99.90;;;;;;5097181;28;20185;-73
2022/10/12 08:29:07;;;;;;;5.83;1.53;;;18.00;99.90;;;;;;5097213;28;20593;-74
2022/10/12 08:31:35;;;;;;;7.73;1.63;;;18.00;99.90;;;;;;5097032;28;20552;-74
2022/10/12 08:34:03;;;;;;;14.47;1.53;;;17.90;99.90;;;;;;5097575;28;20198;-75
2022/10/12 08:36:30;;;;;;;9.33;1.43;;;17.90;99.90;;;;;;5097046;28;20176;-74
2022/10/12 08:38:58;;;;;;;8.50;1.90;;;17.90;99.90;;;;;;5097508;28;20228;-73
2022/10/12 08:41:42;;;;;;;9.07;1.10;;;17.80;99.90;;;;;;5097085;28;20175;-72
2022/10/12 08:44:45;;;;;;;8.93;1.10;;;17.80;99.90;;;;;;5097081;28;20182;-74
2022/10/12 08:47:31;;;;;;;6.77;1.20;;;17.80;99.90;;;;;;5097451;28;20171;-74
2022/10/12 08:50:01;;;;;;;5.57;1.20;;;17.80;99.90;;;;;;5097364;28;20243;-74
2022/10/12 08:53:00;;;;;;;5.73;1.53;;;17.70;99.90;;;;;;5078971;28;20175;-71
2022/10/12 08:55:41;;;;;;;3.63;1.20;;;17.70;99.90;;;;;;5078510;28;20206;-72
2022/10/12 08:58:23;;;;;;;11.90;1.30;;;17.60;99.90;;;;;;5097111;28;20179;-75
2022/10/12 09:00:56;;;;;;;10.03;1.57;;;17.60;99.90;;;;;;5096421;28;20712;-71
2022/10/12 09:03:39;;;;;;;9.17;1.90;;;17.60;99.90;;;;;;5078295;28;20188;-72
2022/10/12 09:06:33;;;;;;;4.67;1.27;;;17.70;99.90;;;;;;5096596;28;20167;-71
2022/10/12 09:09:37;;;;;;;5.93;1.37;;;17.60;99.90;;;;;;5096620;28;20254;-73
2022/10/12 09:12:19;;;;;;;9.30;1.50;;;17.50;99.90;;;;;;5096820;28;20261;-74
2022/10/12 09:14:50;;;;;;;4.27;1.13;;;17.50;99.90;;;;;;5096776;28;20182;-70
2022/10/12 09:17:23;;;;;;;5.97;1.70;;;17.50;99.90;;;;;;5096380;28;20179;-72
2022/10/12 09:20:00;;;;;;;7.10;1.50;;;17.50;99.90;;;;;;5095925;28;20195;-72
2022/10/12 09:22:29;;;;;;;5.17;1.30;;;17.40;99.90;;;;;;5096179;28;20202;-72
2022/10/12 09:24:58;;;;;;;4.30;1.17;;;17.40;99.90;;;;;;5095947;28;20266;-72
2022/10/12 09:27:30;;;;;;;7.07;1.37;;;17.40;99.90;;;;;;5096498;28;20171;-73
2022/10/12 09:30:03;;;;;;;3.40;1.00;;;17.30;99.90;;;;;;5095542;28;20215;-70
2022/10/12 09:32:36;;;;;;;5.83;1.50;;;17.40;99.90;;;;;;5095951;28;20195;-70
2022/10/12 09:35:06;;;;;;;17.57;1.50;;;17.40;99.90;;;;;;5077785;28;20600;-71
2022/10/12 09:37:37;;;;;;;8.03;1.40;;;17.40;99.90;;;;;;5095825;28;20184;-73
2022/10/12 09:40:05;;;;;;;6.17;1.57;;;17.40;99.90;;;;;;5095911;28;20190;-73
2022/10/12 09:42:36;;;;;;;9.60;1.50;;;17.40;99.90;;;;;;5095984;28;20610;-75
2022/10/12 09:45:20;;;;;;;4.90;1.33;;;17.30;99.90;;;;;;5096056;28;20175;-71
2022/10/12 09:48:12;;;;;;;5.70;1.30;;;17.40;99.90;;;;;;5077565;28;20237;-73
2022/10/12 09:50:55;;;;;;;6.20;1.17;;;17.40;99.90;;;;;;5095487;28;20699;-72
2022/10/12 09:53:31;;;;;;;7.40;1.50;;;17.30;99.90;;;;;;5092143;28;20667;-71
2022/10/12 09:56:03;;;;;;;7.57;1.20;;;17.30;99.90;;;;;;5077460;28;20272;-72
2022/10/12 09:58:36;;;;;;;8.10;1.43;;;17.20;99.90;;;;;;5095674;28;20167;-72
2022/10/12 10:01:18;;;;;;;8.40;1.37;;;17.30;99.90;;;;;;5077119;28;20235;-71
2022/10/12 10:04:05;;;;;;;8.40;1.63;;;17.30;99.90;;;;;;5077003;28;20181;-73
2022/10/12 10:06:33;;;;;;;3.43;1.43;;;17.30;99.90;;;;;;5095267;28;20210;-73
2022/10/12 10:09:00;;;;;;;6.20;1.60;;;17.20;99.90;;;;;;5095297;28;20706;-74
2022/10/12 10:11:32;;;;;;;14.03;2.27;;;17.20;99.90;;;;;;5095411;28;20175;-71
2022/10/12 10:14:01;;;;;;;5.83;1.50;;;17.20;99.90;;;;;;5095276;28;20258;-73
2022/10/12 10:16:30;;;;;;;9.53;1.93;;;17.30;99.90;;;;;;5095033;28;20175;-73
2022/10/12 10:19:01;;;;;;;11.10;1.70;;;17.30;99.90;;;;;;5095131;28;20182;-75
2022/10/12 10:21:39;;;;;;;7.27;1.90;;;17.20;99.90;;;;;;5095110;28;20236;-72
2022/10/12 10:24:24;;;;;;;7.37;1.27;;;17.10;99.90;;;;;;5095080;28;20190;-73
2022/10/12 10:26:55;;;;;;;7.07;1.47;;;17.00;99.90;;;;;;5095067;28;20266;-70
2022/10/12 10:29:29;;;;;;;4.17;1.40;;;16.90;99.90;;;;;;5095033;28;20628;-71
2022/10/12 10:32:23;;;;;;;8.60;1.70;;;16.90;99.90;;;;;;5094755;28;20179;-70
2022/10/12 10:35:20;;;;;;;10.47;1.83;;;16.90;99.90;;;;;;5095112;28;20656;-73
2022/10/12 10:37:55;;;;;;;8.50;1.70;;;16.90;99.90;;;;;;5094818;28;20232;-72
2022/10/12 10:40:28;;;;;;;6.90;2.33;;;16.80;99.90;;;;;;5094457;28;20278;-75
2022/10/12 10:43:04;;;;;;;7.83;2.20;;;16.80;99.90;;;;;;5093538;28;20218;-71
2022/10/12 10:45:44;;;;;;;6.50;1.80;;;16.80;99.90;;;;;;5076474;28;20190;-70
2022/10/12 10:48:17;;;;;;;9.00;2.10;;;16.90;99.90;;;;;;5094586;28;20237;-72
2022/10/12 10:50:52;;;;;;;5.87;1.60;;;16.90;99.90;;;;;;5094560;28;20226;-73
2022/10/12 10:53:24;;;;;;;9.33;1.60;;;16.90;99.90;;;;;;5094569;28;20214;-72
2022/10/12 10:56:01;;;;;;;10.27;1.83;;;16.90;99.90;;;;;;5076123;28;20229;-72
2022/10/12 10:58:34;;;;;;;5.00;1.10;;;16.80;99.90;;;;;;5095004;28;20182;-73
2022/10/12 11:01:14;;;;;;;5.67;1.33;;;16.70;99.90;;;;;;5093959;28;20288;-72
2022/10/12 11:04:02;;;;;;;7.07;1.60;;;16.60;99.90;;;;;;5078244;28;20168;-75
2022/10/12 11:06:49;;;;;;;3.93;1.07;;;16.60;99.90;;;;;;5094110;28;20174;-72
2022/10/12 11:09:21;;;;;;;15.57;2.20;;;16.50;99.90;;;;;;5094081;28;20167;-73
2022/10/12 11:12:01;;;;;;;8.27;2.17;;;16.40;99.90;;;;;;5094214;28;20175;-73
2022/10/12 11:14:52;;;;;;;5.27;1.73;;;16.50;99.90;;;;;;5094158;28;20167;-72
2022/10/12 11:17:28;;;;;;;6.50;1.47;;;16.50;99.90;;;;;;5093924;28;20182;-73
2022/10/12 11:20:32;;;;;;;12.30;1.90;;;16.50;99.90;;;;;;5075716;28;20187;-71
2022/10/12 11:23:09;;;;;;;4.73;1.63;;;16.50;99.90;;;;;;5039366;28;20214;-72
2022/10/12 11:25:42;;;;;;;5.70;2.03;;;16.40;99.90;;;;;;5094326;28;20692;-71
2022/10/12 11:28:14;;;;;;;6.80;1.27;;;16.40;99.90;;;;;;5093822;28;20232;-72
2022/10/12 11:30:50;;;;;;;9.87;1.60;;;16.40;99.90;;;;;;5093916;28;20207;-72
2022/10/12 11:33:43;;;;;;;7.97;1.83;;;16.40;99.90;;;;;;5093712;28;20171;-72
2022/10/12 11:36:18;;;;;;;4.17;1.30;;;16.40;99.90;;;;;;5093376;28;20589;-73
2022/10/12 11:38:53;;;;;;;10.60;1.80;;;16.30;99.90;;;;;;5093706;28;20211;-72
2022/10/12 11:41:24;;;;;;;8.27;1.60;;;16.30;99.90;;;;;;5093487;28;20539;-73
2022/10/12 11:44:27;;;;;;;6.23;1.53;;;16.30;99.90;;;;;;5093684;28;20182;-73
2022/10/12 11:47:23;;;;;;;4.60;1.20;;;16.20;99.90;;;;;;5091670;28;20185;-69
2022/10/12 11:49:56;;;;;;;6.73;1.60;;;16.20;99.90;;;;;;5062033;28;20229;-69
2022/10/12 11:52:27;;;;;;;10.73;1.90;;;16.10;99.90;;;;;;5085953;28;20182;-70
2022/10/12 11:55:14;;;;;;;7.80;1.63;;;16.10;99.90;;;;;;5093614;28;20216;-69
2022/10/12 11:57:42;;;;;;;7.93;1.60;;;16.00;99.90;;;;;;5091601;28;20201;-69
2022/10/12 12:00:38;;;;;;;5.83;1.63;;;16.00;99.90;;;;;;5081787;28;20269;-70
2022/10/12 12:03:41;;;;;;;4.37;1.47;;;15.90;99.90;;;;;;5087488;28;20218;-69
2022/10/12 12:06:30;;;;;;;7.43;1.77;;;15.80;99.90;;;;;;5038419;28;20248;-69
2022/10/12 12:09:04;;;;;;;11.63;1.83;;;15.80;99.90;;;;;;5079194;28;20179;-69
2022/10/12 12:11:35;;;;;;;8.40;1.73;;;15.70;99.90;;;;;;5086257;28;20187;-68
2022/10/12 12:14:40;;;;;;;7.07;2.07;;;15.70;99.90;;;;;;5070003;28;20543;-70
2022/10/12 12:17:22;;;;;;;4.17;1.30;;;15.60;99.90;;;;;;5088020;28;20183;-69
2022/10/12 12:20:15;;;;;;;11.20;2.03;;;15.50;99.90;;;;;;5090926;28;20249;-69
2022/10/12 12:22:54;;;;;;;4.73;1.33;;;15.50;99.90;;;;;;5050869;28;20218;-69
2022/10/12 12:25:30;;;;;;;4.47;1.60;;;15.40;99.90;;;;;;5092382;28;20228;-69
2022/10/12 12:28:05;;;;;;;3.83;1.53;;;15.40;99.90;;;;;;5092881;28;20179;-69
2022/10/12 12:30:40;;;;;;;4.93;1.40;;;15.40;99.90;;;;;;5093304;28;20263;-69
2022/10/12 12:33:26;;;;;;;7.07;1.67;;;15.40;99.90;;;;;;5089090;28;20179;-70
2022/10/12 12:36:02;;;;;;;4.50;1.27;;;15.30;99.90;;;;;;5072879;28;20535;-68
2022/10/12 12:38:45;;;;;;;4.93;1.60;;;15.30;99.90;;;;;;5089601;28;20248;-69
2022/10/12 12:41:16;;;;;;;4.77;1.60;;;15.30;99.90;;;;;;5091885;28;20171;-68
2022/10/12 12:44:01;;;;;;;6.13;1.87;;;15.30;99.90;;;;;;5081785;28;20578;-69
2022/10/12 12:47:10;;;;;;;8.77;1.80;;;15.20;99.90;;;;;;5092822;28;20172;-70
2022/10/12 12:49:49;;;;;;;5.17;1.53;;;15.10;99.90;;;;;;5079811;28;20688;-69
2022/10/12 12:52:33;;;;;;;6.07;1.60;;;15.20;99.90;;;;;;5072796;28;20199;-69
2022/10/12 12:55:18;;;;;;;5.43;1.70;;;15.10;99.90;;;;;;5091885;28;20183;-68
2022/10/12 12:58:06;;;;;;;6.10;1.77;;;15.00;99.90;;;;;;5092932;28;20632;-68
2022/10/12 13:00:47;;;;;;;6.07;1.77;;;15.00;99.90;;;;;;5070978;28;20228;-69
2022/10/12 13:03:20;;;;;;;6.10;1.40;;;15.00;99.90;;;;;;5066468;28;20176;-69
2022/10/12 13:06:24;;;;;;;5.30;1.93;;;14.90;99.90;;;;;;5055215;28;20177;-69
2022/10/12 13:08:54;;;;;;;10.63;1.90;;;14.80;99.90;;;;;;5056400;28;20187;-69
2022/10/12 13:11:46;;;;;;;5.43;1.30;;;14.80;99.90;;;;;;5074653;28;20711;-69
2022/10/12 13:15:03;;;;;;;6.53;2.43;;;14.70;99.90;;;;;;5063448;28;20192;-69
2022/10/12 13:18:06;;;;;;;8.70;1.60;;;14.60;99.90;;;;;;5030833;28;20204;-68